sensor_id;sensor_type;location;lat;lon;timestamp;temperature;humidity
17956;DHT22;27666;51.498;11.966;2023-12-14T05:17:21;6.30;99.90
17956;DHT22;27666;51.498;11.966;2023-12-14T05:20:08;6.30;99.90
17956;DHT22;27666;51.498;11.966;2023-12-14T05:22:55;6.30;99.90
17956;DHT22;27666;51.498;11.966;2023-12-14T05:25:42;6.50;99.90
17956;DHT22;27666;51.498;11.966;2023-12-14T05:28:30;6.40;99.90
17956;DHT22;27666;51.498;11.966;2023-12-14T05:31:17;6.20;99.90
17956;DHT22;27666;51.498;11.966;2023-12-14T05:34:05;6.10;99.90
17956;DHT22;27666;51.498;11.966;2023-12-14T05:36:52;6.00;99.90
17956;DHT22;27666;51.498;11.966;2023-12-14T05:39:41;6.00;99.90
17956;DHT22;27666;51.498;11.966;2023-12-14T05:42:28;6.10;99.90
17956;DHT22;27666;51.498;11.966;2023-12-14T05:45:15;6.10;99.90
17956;DHT22;27666;51.498;11.966;2023-12-14T05:48:04;6.20;99.90
17956;DHT22;27666;51.498;11.966;2023-12-14T05:50:53;6.20;99.90
17956;DHT22;27666;51.498;11.966;2023-12-14T05:53:39;6.00;99.90
17956;DHT22;27666;51.498;11.966;2023-12-14T05:56:26;6.00;99.90
17956;DHT22;27666;51.498;11.966;2023-12-14T05:59:13;5.90;99.90
17956;DHT22;27666;51.498;11.966;2023-12-14T06:02:00;5.90;99.90
17956;DHT22;27666;51.498;11.966;2023-12-14T06:04:47;5.90;99.90
17956;DHT22;27666;51.498;11.966;2023-12-14T06:07:35;5.90;99.90
17956;DHT22;27666;51.498;11.966;2023-12-14T06:10:23;6.00;99.90
17956;DHT22;27666;51.498;11.966;2023-12-14T06:13:09;6.00;99.90
17956;DHT22;27666;51.498;11.966;2023-12-14T06:15:56;6.10;99.90
17956;DHT22;27666;51.498;11.966;2023-12-14T06:18:42;6.10;99.90
17956;DHT22;27666;51.498;11.966;2023-12-14T06:21:29;6.20;99.90
17956;DHT22;27666;51.498;11.966;2023-12-14T06:24:17;6.10;99.90
17956;DHT22;27666;51.498;11.966;2023-12-14T06:27:06;6.10;99.90
17956;DHT22;27666;51.498;11.966;2023-12-14T06:29:53;6.10;99.90
17956;DHT22;27666;51.498;11.966;2023-12-14T06:32:40;6.00;99.90
17956;DHT22;27666;51.498;11.966;2023-12-14T06:35:27;6.10;99.90
17956;DHT22;27666;51.498;11.966;2023-12-14T06:38:13;6.10;99.90
17956;DHT22;27666;51.498;11.966;2023-12-14T06:41:02;6.10;99.90
17956;DHT22;27666;51.498;11.966;2023-12-14T06:43:49;6.10;99.90
17956;DHT22;27666;51.498;11.966;2023-12-14T06:46:36;5.90;99.90
17956;DHT22;27666;51.498;11.966;2023-12-14T06:49:25;5.70;99.90
17956;DHT22;27666;51.498;11.966;2023-12-14T06:52:14;5.70;99.90
17956;DHT22;27666;51.498;11.966;2023-12-14T06:55:00;5.70;99.90
17956;DHT22;27666;51.498;11.966;2023-12-14T06:57:49;5.70;99.90
17956;DHT22;27666;51.498;11.966;2023-12-14T07:00:35;5.60;99.90
17956;DHT22;27666;51.498;11.966;2023-12-14T07:03:25;5.70;99.90
17956;DHT22;27666;51.498;11.966;2023-12-14T07:06:12;5.70;99.90
17956;DHT22;27666;51.498;11.966;2023-12-14T07:08:59;5.70;99.90
17956;DHT22;27666;51.498;11.966;2023-12-14T07:11:46;5.90;99.90
17956;DHT22;27666;51.498;11.966;2023-12-14T07:14:34;5.90;99.90
17956;DHT22;27666;51.498;11.966;2023-12-14T07:17:21;5.90;99.90
17956;DHT22;27666;51.498;11.966;2023-12-14T07:20:09;6.00;99.90
17956;DHT22;27666;51.498;11.966;2023-12-14T07:22:56;5.90;99.90
17956;DHT22;27666;51.498;11.966;2023-12-14T07:25:43;6.00;99.90
17956;DHT22;27666;51.498;11.966;2023-12-14T07:28:30;5.90;99.90
17956;DHT22;27666;51.498;11.966;2023-12-14T07:31:18;5.90;99.90
17956;DHT22;27666;51.498;11.966;2023-12-14T07:34:05;6.00;99.90
17956;DHT22;27666;51.498;11.966;2023-12-14T07:36:51;6.10;99.90
17956;DHT22;27666;51.498;11.966;2023-12-14T07:39:38;6.00;99.90
17956;DHT22;27666;51.498;11.966;2023-12-14T07:42:25;6.00;99.90
17956;DHT22;27666;51.498;11.966;2023-12-14T07:45:11;6.00;99.90
17956;DHT22;27666;51.498;11.966;2023-12-14T07:48:00;6.00;99.90
17956;DHT22;27666;51.498;11.966;2023-12-14T07:50:48;6.00;99.90
17956;DHT22;27666;51.498;11.966;2023-12-14T07:53:34;6.00;99.90
17956;DHT22;27666;51.498;11.966;2023-12-14T07:56:22;5.90;99.90
17956;DHT22;27666;51.498;11.966;2023-12-14T07:59:13;5.90;99.90
17956;DHT22;27666;51.498;11.966;2023-12-14T08:02:00;5.70;99.90
17956;DHT22;27666;51.498;11.966;2023-12-14T08:04:48;5.80;99.90
17956;DHT22;27666;51.498;11.966;2023-12-14T08:07:35;5.80;99.90
17956;DHT22;27666;51.498;11.966;2023-12-14T08:10:22;5.90;99.90
17956;DHT22;27666;51.498;11.966;2023-12-14T08:13:09;5.80;99.90
17956;DHT22;27666;51.498;11.966;2023-12-14T08:15:55;5.80;99.90
17956;DHT22;27666;51.498;11.966;2023-12-14T08:18:42;5.60;99.90
17956;DHT22;27666;51.498;11.966;2023-12-14T08:21:32;5.70;99.90
17956;DHT22;27666;51.498;11.966;2023-12-14T08:24:19;5.60;99.90
17956;DHT22;27666;51.498;11.966;2023-12-14T08:27:06;5.70;99.90
17956;DHT22;27666;51.498;11.966;2023-12-14T08:29:53;5.70;99.90
17956;DHT22;27666;51.498;11.966;2023-12-14T08:32:39;5.70;99.90
17956;DHT22;27666;51.498;11.966;2023-12-14T08:35:26;5.80;99.90
17956;DHT22;27666;51.498;11.966;2023-12-14T08:38:15;5.80;99.90
17956;DHT22;27666;51.498;11.966;2023-12-14T08:41:01;5.80;99.90
17956;DHT22;27666;51.498;11.966;2023-12-14T08:43:48;5.70;99.90
17956;DHT22;27666;51.498;11.966;2023-12-14T08:46:39;5.70;99.90
17956;DHT22;27666;51.498;11.966;2023-12-14T08:49:26;5.80;99.90
17956;DHT22;27666;51.498;11.966;2023-12-14T08:52:14;5.80;99.90
17956;DHT22;27666;51.498;11.966;2023-12-14T08:55:02;5.80;99.90
17956;DHT22;27666;51.498;11.966;2023-12-14T08:57:51;5.90;99.90
17956;DHT22;27666;51.498;11.966;2023-12-14T09:00:38;5.80;99.90
17956;DHT22;27666;51.498;11.966;2023-12-14T09:03:25;5.90;99.90
17956;DHT22;27666;51.498;11.966;2023-12-14T09:06:12;5.90;99.90
17956;DHT22;27666;51.498;11.966;2023-12-14T09:09:01;6.00;99.90
17956;DHT22;27666;51.498;11.966;2023-12-14T09:11:50;6.00;99.90
17956;DHT22;27666;51.498;11.966;2023-12-14T09:14:40;6.00;99.90
17956;DHT22;27666;51.498;11.966;2023-12-14T09:17:26;6.00;99.90
17956;DHT22;27666;51.498;11.966;2023-12-14T09:20:22;5.90;99.90
17956;DHT22;27666;51.498;11.966;2023-12-14T09:23:09;5.90;99.90
17956;DHT22;27666;51.498;11.966;2023-12-14T09:25:56;5.90;99.90
17956;DHT22;27666;51.498;11.966;2023-12-14T09:28:46;5.70;99.90
17956;DHT22;27666;51.498;11.966;2023-12-14T09:31:33;5.70;99.90
17956;DHT22;27666;51.498;11.966;2023-12-14T09:34:20;5.70;99.90
17956;DHT22;27666;51.498;11.966;2023-12-14T09:37:06;5.80;99.90
17956;DHT22;27666;51.498;11.966;2023-12-14T09:39:53;5.80;99.90
17956;DHT22;27666;51.498;11.966;2023-12-14T09:42:40;5.80;99.90
17956;DHT22;27666;51.498;11.966;2023-12-14T09:45:29;5.90;99.90
17956;DHT22;27666;51.498;11.966;2023-12-14T09:48:17;6.00;99.90
17956;DHT22;27666;51.498;11.966;2023-12-14T09:51:04;6.00;99.90
17956;DHT22;27666;51.498;11.966;2023-12-14T09:53:51;6.00;99.90
17956;DHT22;27666;51.498;11.966;2023-12-14T09:56:47;6.10;99.90
17956;DHT22;27666;51.498;11.966;2023-12-14T09:59:33;6.10;99.90
17956;DHT22;27666;51.498;11.966;2023-12-14T10:02:25;6.00;99.90
17956;DHT22;27666;51.498;11.966;2023-12-14T10:05:13;6.00;99.90
17956;DHT22;27666;51.498;11.966;2023-12-14T10:08:00;6.10;99.90
17956;DHT22;27666;51.498;11.966;2023-12-14T10:10:49;6.10;99.90
17956;DHT22;27666;51.498;11.966;2023-12-14T10:13:37;6.00;99.90
17956;DHT22;27666;51.498;11.966;2023-12-14T10:16:29;6.10;99.90
17956;DHT22;27666;51.498;11.966;2023-12-14T10:19:18;6.10;99.90
17956;DHT22;27666;51.498;11.966;2023-12-14T10:22:06;6.20;99.90
17956;DHT22;27666;51.498;11.966;2023-12-14T10:24:53;6.20;99.90
17956;DHT22;27666;51.498;11.966;2023-12-14T10:27:46;6.20;99.90
17956;DHT22;27666;51.498;11.966;2023-12-14T10:30:32;6.20;99.90
17956;DHT22;27666;51.498;11.966;2023-12-14T10:33:22;6.10;99.90
17956;DHT22;27666;51.498;11.966;2023-12-14T10:36:10;6.20;99.90
17956;DHT22;27666;51.498;11.966;2023-12-14T10:38:59;6.20;99.90
17956;DHT22;27666;51.498;11.966;2023-12-14T10:41:47;6.20;99.90
17956;DHT22;27666;51.498;11.966;2023-12-14T10:44:42;6.20;99.90
17956;DHT22;27666;51.498;11.966;2023-12-14T10:47:50;6.10;99.90
17956;DHT22;27666;51.498;11.966;2023-12-14T10:50:38;6.10;99.90
17956;DHT22;27666;51.498;11.966;2023-12-14T10:53:30;6.10;99.90
17956;DHT22;27666;51.498;11.966;2023-12-14T10:56:17;6.20;99.90
17956;DHT22;27666;51.498;11.966;2023-12-14T10:59:06;6.00;99.90
17956;DHT22;27666;51.498;11.966;2023-12-14T11:01:54;6.00;99.90
17956;DHT22;27666;51.498;11.966;2023-12-14T11:04:57;6.00;99.90
17956;DHT22;27666;51.498;11.966;2023-12-14T11:07:48;6.00;99.90
17956;DHT22;27666;51.498;11.966;2023-12-14T11:10:42;6.00;99.90
17956;DHT22;27666;51.498;11.966;2023-12-14T11:13:31;6.00;99.90
17956;DHT22;27666;51.498;11.966;2023-12-14T11:16:20;6.10;99.90
17956;DHT22;27666;51.498;11.966;2023-12-14T11:19:27;6.10;99.90
17956;DHT22;27666;51.498;11.966;2023-12-14T11:22:24;6.00;99.90
17956;DHT22;27666;51.498;11.966;2023-12-14T11:25:11;6.00;99.90
17956;DHT22;27666;51.498;11.966;2023-12-14T11:28:03;6.00;99.90
17956;DHT22;27666;51.498;11.966;2023-12-14T11:30:50;6.10;99.90
17956;DHT22;27666;51.498;11.966;2023-12-14T11:33:41;6.10;99.90
17956;DHT22;27666;51.498;11.966;2023-12-14T11:36:29;6.00;99.90
17956;DHT22;27666;51.498;11.966;2023-12-14T11:39:16;6.10;99.90
17956;DHT22;27666;51.498;11.966;2023-12-14T11:42:04;6.00;99.90
17956;DHT22;27666;51.498;11.966;2023-12-14T11:44:53;5.90;99.90
17956;DHT22;27666;51.498;11.966;2023-12-14T11:47:40;5.90;99.90
17956;DHT22;27666;51.498;11.966;2023-12-14T11:50:27;5.80;99.90
17956;DHT22;27666;51.498;11.966;2023-12-14T11:53:14;5.80;99.90
17956;DHT22;27666;51.498;11.966;2023-12-14T11:56:01;5.90;99.90
17956;DHT22;27666;51.498;11.966;2023-12-14T11:58:48;5.80;99.90
17956;DHT22;27666;51.498;11.966;2023-12-14T12:01:37;5.80;99.90
17956;DHT22;27666;51.498;11.966;2023-12-14T12:04:24;5.80;99.90
17956;DHT22;27666;51.498;11.966;2023-12-14T12:07:11;5.80;99.90
17956;DHT22;27666;51.498;11.966;2023-12-14T12:09:58;5.80;99.90
17956;DHT22;27666;51.498;11.966;2023-12-14T12:12:45;5.80;99.90
17956;DHT22;27666;51.498;11.966;2023-12-14T12:15:32;5.90;99.90
17956;DHT22;27666;51.498;11.966;2023-12-14T12:18:22;5.80;99.90
17956;DHT22;27666;51.498;11.966;2023-12-14T12:21:10;5.90;99.90
17956;DHT22;27666;51.498;11.966;2023-12-14T12:23:57;5.80;99.90
17956;DHT22;27666;51.498;11.966;2023-12-14T12:26:45;5.90;99.90
17956;DHT22;27666;51.498;11.966;2023-12-14T12:29:32;5.90;99.90
17956;DHT22;27666;51.498;11.966;2023-12-14T12:32:19;5.90;99.90
17956;DHT22;27666;51.498;11.966;2023-12-14T12:35:08;5.90;99.90
17956;DHT22;27666;51.498;11.966;2023-12-14T12:37:55;6.00;99.90
17956;DHT22;27666;51.498;11.966;2023-12-14T12:40:42;6.00;99.90
17956;DHT22;27666;51.498;11.966;2023-12-14T12:43:28;6.00;99.90
17956;DHT22;27666;51.498;11.966;2023-12-14T12:46:15;6.00;99.90
17956;DHT22;27666;51.498;11.966;2023-12-14T12:49:02;5.90;99.90
17956;DHT22;27666;51.498;11.966;2023-12-14T12:51:51;6.00;99.90
17956;DHT22;27666;51.498;11.966;2023-12-14T12:54:38;5.90;99.90
17956;DHT22;27666;51.498;11.966;2023-12-14T12:57:25;5.90;99.90
17956;DHT22;27666;51.498;11.966;2023-12-14T13:00:12;5.90;99.90
17956;DHT22;27666;51.498;11.966;2023-12-14T13:02:59;5.90;99.90
17956;DHT22;27666;51.498;11.966;2023-12-14T13:05:47;5.90;99.90
17956;DHT22;27666;51.498;11.966;2023-12-14T13:08:36;5.90;99.90
17956;DHT22;27666;51.498;11.966;2023-12-14T13:11:23;5.90;99.90
17956;DHT22;27666;51.498;11.966;2023-12-14T13:14:12;6.00;99.90
17956;DHT22;27666;51.498;11.966;2023-12-14T13:17:00;6.00;99.90
17956;DHT22;27666;51.498;11.966;2023-12-14T13:19:46;6.00;99.90
17956;DHT22;27666;51.498;11.966;2023-12-14T13:22:33;6.00;99.90
17956;DHT22;27666;51.498;11.966;2023-12-14T13:25:21;5.90;99.90
17956;DHT22;27666;51.498;11.966;2023-12-14T13:28:11;5.90;99.90
17956;DHT22;27666;51.498;11.966;2023-12-14T13:31:02;6.00;99.90
17956;DHT22;27666;51.498;11.966;2023-12-14T13:33:49;6.00;99.90
17956;DHT22;27666;51.498;11.966;2023-12-14T13:36:36;6.00;99.90
17956;DHT22;27666;51.498;11.966;2023-12-14T13:39:23;6.00;99.90
17956;DHT22;27666;51.498;11.966;2023-12-14T13:42:11;6.00;99.90
17956;DHT22;27666;51.498;11.966;2023-12-14T13:44:58;5.90;99.90
17956;DHT22;27666;51.498;11.966;2023-12-14T13:47:44;5.80;99.90
17956;DHT22;27666;51.498;11.966;2023-12-14T13:50:31;5.80;99.90
17956;DHT22;27666;51.498;11.966;2023-12-14T13:53:18;5.80;99.90
17956;DHT22;27666;51.498;11.966;2023-12-14T13:56:06;5.90;99.90
17956;DHT22;27666;51.498;11.966;2023-12-14T13:58:54;5.80;99.90
17956;DHT22;27666;51.498;11.966;2023-12-14T14:01:41;5.90;99.90
17956;DHT22;27666;51.498;11.966;2023-12-14T14:04:28;5.90;99.90
17956;DHT22;27666;51.498;11.966;2023-12-14T14:07:14;5.90;99.90
17956;DHT22;27666;51.498;11.966;2023-12-14T14:10:01;6.00;99.90
17956;DHT22;27666;51.498;11.966;2023-12-14T14:12:48;6.00;99.90
17956;DHT22;27666;51.498;11.966;2023-12-14T14:15:38;6.00;99.90
17956;DHT22;27666;51.498;11.966;2023-12-14T14:18:25;6.00;99.90
17956;DHT22;27666;51.498;11.966;2023-12-14T14:21:12;6.00;99.90
17956;DHT22;27666;51.498;11.966;2023-12-14T14:23:58;5.90;99.90
17956;DHT22;27666;51.498;11.966;2023-12-14T14:26:45;5.90;99.90
17956;DHT22;27666;51.498;11.966;2023-12-14T14:29:31;5.90;99.90
17956;DHT22;27666;51.498;11.966;2023-12-14T14:32:20;5.90;99.90
17956;DHT22;27666;51.498;11.966;2023-12-14T14:35:07;5.80;99.90
17956;DHT22;27666;51.498;11.966;2023-12-14T14:37:54;5.90;99.90
17956;DHT22;27666;51.498;11.966;2023-12-14T14:40:42;5.90;99.90
17956;DHT22;27666;51.498;11.966;2023-12-14T14:43:29;5.90;99.90
17956;DHT22;27666;51.498;11.966;2023-12-14T14:46:16;5.90;99.90
17956;DHT22;27666;51.498;11.966;2023-12-14T14:49:04;5.90;99.90
17956;DHT22;27666;51.498;11.966;2023-12-14T14:51:51;5.80;99.90
17956;DHT22;27666;51.498;11.966;2023-12-14T14:54:37;5.90;99.90
17956;DHT22;27666;51.498;11.966;2023-12-14T14:57:24;5.90;99.90
17956;DHT22;27666;51.498;11.966;2023-12-14T15:00:12;5.80;99.90
17956;DHT22;27666;51.498;11.966;2023-12-14T15:03:00;5.90;99.90
17956;DHT22;27666;51.498;11.966;2023-12-14T15:05:48;5.90;99.90
17956;DHT22;27666;51.498;11.966;2023-12-14T15:08:35;5.90;99.90
17956;DHT22;27666;51.498;11.966;2023-12-14T15:11:22;5.80;99.90
17956;DHT22;27666;51.498;11.966;2023-12-14T15:14:08;5.90;99.90
17956;DHT22;27666;51.498;11.966;2023-12-14T15:16:56;5.90;99.90
17956;DHT22;27666;51.498;11.966;2023-12-14T15:19:43;5.80;99.90
17956;DHT22;27666;51.498;11.966;2023-12-14T15:22:32;5.90;99.90
17956;DHT22;27666;51.498;11.966;2023-12-14T15:25:19;5.80;99.90
17956;DHT22;27666;51.498;11.966;2023-12-14T15:28:06;5.90;99.90
17956;DHT22;27666;51.498;11.966;2023-12-14T15:30:53;5.90;99.90
17956;DHT22;27666;51.498;11.966;2023-12-14T15:33:39;5.90;99.90
17956;DHT22;27666;51.498;11.966;2023-12-14T15:36:27;5.90;99.90
17956;DHT22;27666;51.498;11.966;2023-12-14T15:39:16;5.90;99.90
17956;DHT22;27666;51.498;11.966;2023-12-14T15:42:04;5.90;99.90
17956;DHT22;27666;51.498;11.966;2023-12-14T15:44:50;5.90;99.90
17956;DHT22;27666;51.498;11.966;2023-12-14T15:47:37;6.00;99.90
17956;DHT22;27666;51.498;11.966;2023-12-14T15:50:24;5.90;99.90
17956;DHT22;27666;51.498;11.966;2023-12-14T15:53:11;5.90;99.90
17956;DHT22;27666;51.498;11.966;2023-12-14T15:56:00;5.80;99.90
17956;DHT22;27666;51.498;11.966;2023-12-14T15:58:46;5.90;99.90
17956;DHT22;27666;51.498;11.966;2023-12-14T16:01:33;5.90;99.90
17956;DHT22;27666;51.498;11.966;2023-12-14T16:04:22;5.90;99.90
17956;DHT22;27666;51.498;11.966;2023-12-14T16:07:09;5.80;99.90
17956;DHT22;27666;51.498;11.966;2023-12-14T16:09:55;5.80;99.90
17956;DHT22;27666;51.498;11.966;2023-12-14T16:12:43;5.80;99.90
17956;DHT22;27666;51.498;11.966;2023-12-14T16:15:30;5.80;99.90
17956;DHT22;27666;51.498;11.966;2023-12-14T16:18:17;5.80;99.90
17956;DHT22;27666;51.498;11.966;2023-12-14T16:21:05;5.80;99.90
17956;DHT22;27666;51.498;11.966;2023-12-14T16:23:53;5.90;99.90
17956;DHT22;27666;51.498;11.966;2023-12-14T16:26:39;5.90;99.90
17956;DHT22;27666;51.498;11.966;2023-12-14T16:29:28;5.90;99.90
17956;DHT22;27666;51.498;11.966;2023-12-14T16:32:15;5.90;99.90
17956;DHT22;27666;51.498;11.966;2023-12-14T16:35:03;5.90;99.90
17956;DHT22;27666;51.498;11.966;2023-12-14T16:37:50;5.90;99.90
17956;DHT22;27666;51.498;11.966;2023-12-14T16:40:37;6.00;99.90
17956;DHT22;27666;51.498;11.966;2023-12-14T16:43:24;6.00;99.90
17956;DHT22;27666;51.498;11.966;2023-12-14T16:46:19;6.00;99.90
17956;DHT22;27666;51.498;11.966;2023-12-14T16:49:08;5.90;99.90
17956;DHT22;27666;51.498;11.966;2023-12-14T16:51:55;5.90;99.90
17956;DHT22;27666;51.498;11.966;2023-12-14T16:54:41;6.00;99.90
17956;DHT22;27666;51.498;11.966;2023-12-14T16:57:28;5.90;99.90
17956;DHT22;27666;51.498;11.966;2023-12-14T17:00:15;5.90;99.90
17956;DHT22;27666;51.498;11.966;2023-12-14T17:03:04;5.90;99.90
17956;DHT22;27666;51.498;11.966;2023-12-14T17:05:51;5.90;99.90
17956;DHT22;27666;51.498;11.966;2023-12-14T17:08:40;6.00;99.90
17956;DHT22;27666;51.498;11.966;2023-12-14T17:11:27;6.00;99.90
17956;DHT22;27666;51.498;11.966;2023-12-14T17:14:14;6.00;99.90
17956;DHT22;27666;51.498;11.966;2023-12-14T17:17:03;5.90;99.90
17956;DHT22;27666;51.498;11.966;2023-12-14T17:19:51;6.00;99.90
17956;DHT22;27666;51.498;11.966;2023-12-14T17:22:40;6.00;99.90
17956;DHT22;27666;51.498;11.966;2023-12-14T17:25:26;6.00;99.90
17956;DHT22;27666;51.498;11.966;2023-12-14T17:28:13;6.00;99.90
17956;DHT22;27666;51.498;11.966;2023-12-14T17:31:00;6.00;99.90
17956;DHT22;27666;51.498;11.966;2023-12-14T17:33:47;6.00;99.90
17956;DHT22;27666;51.498;11.966;2023-12-14T17:36:38;6.00;99.90
17956;DHT22;27666;51.498;11.966;2023-12-14T17:39:25;6.00;99.90
17956;DHT22;27666;51.498;11.966;2023-12-14T17:42:11;6.00;99.90
17956;DHT22;27666;51.498;11.966;2023-12-14T17:45:05;6.00;99.90
17956;DHT22;27666;51.498;11.966;2023-12-14T17:47:52;6.00;99.90
17956;DHT22;27666;51.498;11.966;2023-12-14T17:50:38;6.00;99.90
17956;DHT22;27666;51.498;11.966;2023-12-14T17:53:27;5.90;99.90
17956;DHT22;27666;51.498;11.966;2023-12-14T17:56:15;5.90;99.90
17956;DHT22;27666;51.498;11.966;2023-12-14T17:59:02;5.90;99.90
17956;DHT22;27666;51.498;11.966;2023-12-14T18:01:49;5.90;99.90
17956;DHT22;27666;51.498;11.966;2023-12-14T18:04:38;6.00;99.90
17956;DHT22;27666;51.498;11.966;2023-12-14T18:07:25;6.10;99.90
17956;DHT22;27666;51.498;11.966;2023-12-14T18:10:13;6.00;99.90
17956;DHT22;27666;51.498;11.966;2023-12-14T18:13:00;6.00;99.90
17956;DHT22;27666;51.498;11.966;2023-12-14T18:15:50;5.90;99.90
17956;DHT22;27666;51.498;11.966;2023-12-14T18:18:36;5.90;99.90
17956;DHT22;27666;51.498;11.966;2023-12-14T18:21:23;6.00;99.90
17956;DHT22;27666;51.498;11.966;2023-12-14T18:24:11;6.00;99.90
17956;DHT22;27666;51.498;11.966;2023-12-14T18:27:00;5.90;99.90
17956;DHT22;27666;51.498;11.966;2023-12-14T18:29:47;5.90;99.90
17956;DHT22;27666;51.498;11.966;2023-12-14T18:32:34;5.90;99.90
17956;DHT22;27666;51.498;11.966;2023-12-14T18:35:22;5.90;99.90
17956;DHT22;27666;51.498;11.966;2023-12-14T18:38:09;6.00;99.90
17956;DHT22;27666;51.498;11.966;2023-12-14T18:40:56;5.90;99.90
17956;DHT22;27666;51.498;11.966;2023-12-14T18:43:44;5.90;99.90
17956;DHT22;27666;51.498;11.966;2023-12-14T18:46:31;6.00;99.90
17956;DHT22;27666;51.498;11.966;2023-12-14T18:49:17;5.90;99.90
17956;DHT22;27666;51.498;11.966;2023-12-14T18:52:05;5.90;99.90
17956;DHT22;27666;51.498;11.966;2023-12-14T18:54:51;5.90;99.90
17956;DHT22;27666;51.498;11.966;2023-12-14T18:57:39;5.90;99.90
17956;DHT22;27666;51.498;11.966;2023-12-14T19:00:29;6.00;99.90
17956;DHT22;27666;51.498;11.966;2023-12-14T19:03:16;6.00;99.90
17956;DHT22;27666;51.498;11.966;2023-12-14T19:06:06;6.00;99.90
17956;DHT22;27666;51.498;11.966;2023-12-14T19:08:55;5.90;99.90
17956;DHT22;27666;51.498;11.966;2023-12-14T19:11:42;6.00;99.90
17956;DHT22;27666;51.498;11.966;2023-12-14T19:14:29;5.90;99.90
17956;DHT22;27666;51.498;11.966;2023-12-14T19:17:17;5.80;99.90
17956;DHT22;27666;51.498;11.966;2023-12-14T19:20:06;5.90;99.90
17956;DHT22;27666;51.498;11.966;2023-12-14T19:22:53;5.90;99.90
17956;DHT22;27666;51.498;11.966;2023-12-14T19:25:39;5.80;99.90
17956;DHT22;27666;51.498;11.966;2023-12-14T19:28:27;5.80;99.90
17956;DHT22;27666;51.498;11.966;2023-12-14T19:31:14;5.80;99.90
17956;DHT22;27666;51.498;11.966;2023-12-14T19:34:01;5.70;99.90
17956;DHT22;27666;51.498;11.966;2023-12-14T19:36:48;5.70;99.90
17956;DHT22;27666;51.498;11.966;2023-12-14T19:39:35;5.70;99.90
17956;DHT22;27666;51.498;11.966;2023-12-14T19:42:21;5.70;99.90
17956;DHT22;27666;51.498;11.966;2023-12-14T19:45:09;5.70;99.90
17956;DHT22;27666;51.498;11.966;2023-12-14T19:47:56;5.70;99.90
17956;DHT22;27666;51.498;11.966;2023-12-14T19:50:44;5.70;99.90
17956;DHT22;27666;51.498;11.966;2023-12-14T19:53:31;5.70;99.90
17956;DHT22;27666;51.498;11.966;2023-12-14T19:56:18;5.70;99.90
17956;DHT22;27666;51.498;11.966;2023-12-14T19:59:04;5.80;99.90
17956;DHT22;27666;51.498;11.966;2023-12-14T20:01:51;5.70;99.90
17956;DHT22;27666;51.498;11.966;2023-12-14T20:04:38;5.70;99.90
17956;DHT22;27666;51.498;11.966;2023-12-14T20:07:27;5.70;99.90
17956;DHT22;27666;51.498;11.966;2023-12-14T20:10:14;5.70;99.90
17956;DHT22;27666;51.498;11.966;2023-12-14T20:13:01;5.70;99.90
17956;DHT22;27666;51.498;11.966;2023-12-14T20:15:54;5.80;99.90
17956;DHT22;27666;51.498;11.966;2023-12-14T20:18:41;5.70;99.90
